Time;durP1;ratioP1;P1;durP2;ratioP2;P2;SDS_P1;SDS_P2;PMS_P1;PMS_P2;Temp;Humidity;BMP_temperature;BMP_pressure;BME280_temperature;BME280_humidity;BME280_pressure;Samples;Min_cycle;Max_cycle;Signal;HPM_P1;HPM_P2
2022/01/27 00:03:13;;;;;;;7.65;5.63;;;;;;;3.80;85.72;102569.16;5030731;28;21478;-73
2022/01/27 00:05:46;;;;;;;8.27;5.35;;;;;;;3.80;86.48;102550.09;5030203;28;20080;-73
2022/01/27 00:08:17;;;;;;;9.98;4.55;;;;;;;3.78;85.97;102542.34;5032504;28;20060;-72
2022/01/27 00:10:52;;;;;;;9.50;6.70;;;;;;;3.82;85.95;102549.16;5031735;28;20045;-73
2022/01/27 00:13:24;;;;;;;7.97;5.25;;;;;;;3.82;85.50;102543.97;5030919;28;20136;-72
2022/01/27 00:16:10;;;;;;;7.30;4.25;;;;;;;3.80;86.48;102537.97;5032327;28;20076;-73
2022/01/27 00:18:37;;;;;;;8.55;5.18;;;;;;;3.82;86.30;102525.78;5036191;28;20050;-72
2022/01/27 00:21:04;;;;;;;7.95;4.63;;;;;;;3.79;85.71;102520.69;5035698;28;20044;-73
2022/01/27 00:23:30;;;;;;;12.73;5.93;;;;;;;3.80;86.00;102513.72;5038850;28;20055;-73
2022/01/27 00:25:58;;;;;;;9.75;6.15;;;;;;;3.77;85.85;102493.03;5036377;28;20045;-73
2022/01/27 00:28:25;;;;;;;15.85;4.65;;;;;;;3.77;86.32;102488.66;5043682;28;20099;-73
2022/01/27 00:30:51;;;;;;;10.63;5.13;;;;;;;3.78;86.13;102494.69;5048536;28;20096;-73
2022/01/27 00:33:18;;;;;;;10.30;6.15;;;;;;;3.75;85.89;102484.41;5051527;28;20092;-73
2022/01/27 00:35:45;;;;;;;6.15;3.95;;;;;;;3.78;86.44;102494.69;5043423;28;20034;-75
2022/01/27 00:38:13;;;;;;;11.25;6.05;;;;;;;3.74;86.04;102483.53;5028000;28;20075;-72
2022/01/27 00:40:39;;;;;;;9.85;4.68;;;;;;;3.75;85.84;102479.19;5028192;28;20116;-72
2022/01/27 00:43:07;;;;;;;5.78;4.35;;;;;;;3.75;85.88;102468.81;5025716;28;20048;-73
2022/01/27 00:45:35;;;;;;;11.82;6.63;;;;;;;3.72;86.24;102453.28;5025862;28;20041;-75
2022/01/27 00:48:04;;;;;;;10.57;5.07;;;;;;;3.73;86.40;102439.38;5029609;28;20045;-73
2022/01/27 00:50:32;;;;;;;14.73;6.07;;;;;;;3.70;86.16;102437.72;5024460;28;20116;-72
2022/01/27 00:53:02;;;;;;;12.00;6.10;;;;;;;3.73;85.58;102461.06;5032575;28;23733;-73
2022/01/27 00:55:32;;;;;;;13.93;6.07;;;;;;;3.78;85.56;102458.31;5027155;28;20052;-73
2022/01/27 00:58:08;;;;;;;9.40;5.03;;;;;;;3.79;85.78;102458.31;5025177;28;20048;-73
2022/01/27 01:00:42;;;;;;;12.98;3.53;;;;;;;3.80;85.46;102447.00;5035435;28;20666;-72
2022/01/27 01:03:14;;;;;;;12.85;6.32;;;;;;;3.76;86.14;102447.97;5030314;28;20045;-73
2022/01/27 01:06:01;;;;;;;6.83;4.43;;;;;;;3.76;86.08;102450.56;5028135;28;20161;-73
2022/01/27 01:12:04;;;;;;;10.68;5.47;;;;;;;3.82;86.01;102459.97;5026260;28;20049;-73
2022/01/27 01:14:40;;;;;;;12.68;4.50;;;;;;;3.83;86.85;102446.91;5028248;28;20119;-72
2022/01/27 01:17:24;;;;;;;15.57;6.00;;;;;;;3.82;86.87;102458.19;5030902;28;20051;-73
2022/01/27 01:20:03;;;;;;;5.57;3.92;;;;;;;3.83;86.59;102449.53;5033786;28;20048;-72
2022/01/27 01:30:53;;;;;;;9.43;4.35;;;;;;;3.87;86.31;102445.97;5028843;28;20773;-72
2022/01/27 01:33:26;;;;;;;14.55;5.82;;;;;;;3.88;85.87;102439.88;5029527;28;20319;-73
2022/01/27 01:36:01;;;;;;;12.30;6.90;;;;;;;3.89;86.17;102431.19;5027084;28;20128;-71
2022/01/27 01:38:30;;;;;;;9.20;5.88;;;;;;;3.85;86.81;102421.75;5029261;28;20239;-73
2022/01/27 01:40:57;;;;;;;19.58;8.70;;;;;;;3.84;86.87;102425.25;5027051;28;20105;-74
2022/01/27 01:43:24;;;;;;;18.63;7.00;;;;;;;3.89;86.18;102419.94;5028540;28;20041;-72
2022/01/27 01:45:51;;;;;;;12.35;4.97;;;;;;;3.88;86.77;102413.88;5028025;28;20064;-72
2022/01/27 01:48:18;;;;;;;15.73;5.95;;;;;;;3.89;86.78;102400.00;5025807;28;20485;-73
2022/01/27 01:50:46;;;;;;;7.35;4.93;;;;;;;3.91;86.42;102406.00;5026025;28;20047;-73
2022/01/27 01:53:13;;;;;;;11.25;4.47;;;;;;;3.93;86.04;102417.22;5026032;28;20072;-71
2022/01/27 01:55:40;;;;;;;9.57;5.07;;;;;;;3.91;85.92;102390.41;5023907;28;20072;-73
2022/01/27 01:58:07;;;;;;;10.82;4.80;;;;;;;3.92;86.60;102384.31;5024346;28;20041;-73
2022/01/27 02:00:34;;;;;;;8.48;3.72;;;;;;;3.93;86.17;102382.56;5026346;28;20064;-73
2022/01/27 02:03:00;;;;;;;7.15;3.88;;;;;;;3.94;86.18;102392.09;5042269;28;20136;-72
2022/01/27 02:05:31;;;;;;;4.53;3.35;;;;;;;3.95;86.65;102402.44;5026654;28;20053;-71
2022/01/27 02:08:26;;;;;;;9.95;5.85;;;;;;;3.94;86.64;102399.88;5028587;28;20064;-73
2022/01/27 02:19:12;;;;;;;10.57;5.70;;;;;;;3.97;86.39;102366.88;5025164;28;20088;-72
2022/01/27 02:21:46;;;;;;;7.55;4.97;;;;;;;3.96;86.45;102372.94;5026644;28;20053;-73
2022/01/27 02:24:12;;;;;;;6.82;4.88;;;;;;;3.97;86.99;102385.06;5027352;28;20045;-73
2022/01/27 02:26:39;;;;;;;8.45;5.28;;;;;;;3.98;86.72;102373.78;5031229;28;20132;-72
2022/01/27 02:29:05;;;;;;;7.47;5.18;;;;;;;3.96;86.83;102378.16;5032843;28;20044;-73
2022/01/27 02:31:33;;;;;;;10.95;5.32;;;;;;;4.00;86.87;102371.97;5030392;28;20535;-72
2022/01/27 02:34:00;;;;;;;15.00;7.35;;;;;;;3.99;86.36;102371.13;5023974;28;20052;-72
2022/01/27 02:36:27;;;;;;;5.70;4.30;;;;;;;3.99;86.43;102365.91;5024191;28;20041;-73
2022/01/27 02:38:55;;;;;;;9.18;5.93;;;;;;;3.96;86.99;102355.59;5025603;28;20057;-72
2022/01/27 02:41:23;;;;;;;13.88;6.55;;;;;;;3.99;86.85;102339.03;5025371;28;20091;-71
2022/01/27 02:43:50;;;;;;;11.25;4.68;;;;;;;4.03;86.44;102345.88;5027071;28;20125;-73
2022/01/27 02:46:21;;;;;;;18.85;5.80;;;;;;;3.99;86.97;102339.91;5026889;28;20033;-73
2022/01/27 02:48:47;;;;;;;8.82;4.45;;;;;;;4.02;86.81;102338.97;5026450;28;20055;-73
2022/01/27 02:51:14;;;;;;;14.15;6.18;;;;;;;4.00;86.94;102341.63;5033857;28;20053;-72
2022/01/27 02:53:41;;;;;;;14.07;5.25;;;;;;;4.07;86.14;102337.97;5031673;28;20053;-73
2022/01/27 02:56:09;;;;;;;10.23;5.50;;;;;;;4.03;86.30;102345.88;5026206;28;20052;-73
2022/01/27 02:58:35;;;;;;;8.70;5.80;;;;;;;4.09;86.72;102343.13;5029590;28;20064;-73
2022/01/27 03:01:03;;;;;;;20.20;4.70;;;;;;;4.08;86.52;102336.19;5033245;28;20056;-72
2022/01/27 03:03:30;;;;;;;11.55;6.20;;;;;;;4.06;86.90;102336.25;5032883;28;20506;-74
2022/01/27 03:05:57;;;;;;;14.73;5.20;;;;;;;4.08;87.11;102333.59;5040373;28;20059;-73
2022/01/27 03:08:24;;;;;;;7.43;5.75;;;;;;;4.11;86.58;102328.31;5050216;28;20033;-74
2022/01/27 03:10:56;;;;;;;12.95;5.60;;;;;;;4.09;86.73;102319.72;5050347;28;20046;-73
2022/01/27 03:13:28;;;;;;;9.55;5.93;;;;;;;4.10;86.31;102306.66;5048609;28;20041;-72
2022/01/27 03:15:56;;;;;;;17.33;5.18;;;;;;;4.10;87.28;102311.84;5038448;28;20041;-73
2022/01/27 03:18:23;;;;;;;7.13;4.90;;;;;;;4.13;86.64;102308.34;5044410;28;20041;-71
2022/01/27 03:20:49;;;;;;;13.45;6.47;;;;;;;4.16;86.65;102303.03;5038266;28;20054;-72
2022/01/27 03:23:16;;;;;;;9.60;3.97;;;;;;;4.16;86.56;102282.22;5034802;28;20072;-72
2022/01/27 03:25:47;;;;;;;11.95;6.53;;;;;;;4.15;86.48;102290.94;5028092;28;20048;-73
2022/01/27 03:28:14;;;;;;;6.72;4.10;;;;;;;4.17;86.61;102295.22;5029737;28;20059;-73
2022/01/27 03:30:42;;;;;;;9.52;4.60;;;;;;;4.20;86.96;102291.66;5025187;28;20233;-72
2022/01/27 03:33:09;;;;;;;4.80;2.47;;;;;;;4.22;86.56;102279.47;5026265;28;20083;-72
2022/01/27 03:35:35;;;;;;;9.90;6.72;;;;;;;4.19;86.51;102279.56;5025183;28;20040;-72
2022/01/27 03:38:02;;;;;;;8.93;4.93;;;;;;;4.22;86.51;102284.69;5027926;28;20424;-72
2022/01/27 03:40:29;;;;;;;5.47;3.75;;;;;;;4.22;86.84;102282.09;5025883;28;20060;-72
2022/01/27 03:43:02;;;;;;;10.32;5.57;;;;;;;4.23;86.54;102281.16;5026769;28;20075;-73
2022/01/27 03:45:29;;;;;;;10.60;4.95;;;;;;;4.19;86.68;102263.94;5026685;28;20506;-71
2022/01/27 03:47:58;;;;;;;9.25;6.13;;;;;;;4.19;87.14;102253.56;5029787;28;20064;-72
2022/01/27 03:50:25;;;;;;;9.07;4.88;;;;;;;4.18;87.30;102257.03;5022421;28;20565;-74
2022/01/27 03:52:52;;;;;;;6.80;4.25;;;;;;;4.21;87.52;102257.81;5024480;28;20049;-73
2022/01/27 03:55:19;;;;;;;9.73;3.03;;;;;;;4.27;86.85;102262.81;5026426;28;20069;-73
2022/01/27 03:57:46;;;;;;;7.65;5.38;;;;;;;4.25;86.52;102262.03;5026260;28;20056;-72
2022/01/27 04:00:13;;;;;;;8.88;5.70;;;;;;;4.27;87.18;102252.41;5027757;28;20044;-72
2022/01/27 04:02:51;;;;;;;13.20;4.80;;;;;;;4.27;87.00;102254.19;5025672;28;20045;-72
2022/01/27 04:05:20;;;;;;;10.07;6.32;;;;;;;4.31;87.24;102264.44;5029333;28;20120;-72
2022/01/27 04:07:47;;;;;;;11.63;5.68;;;;;;;4.31;86.76;102274.00;5043030;28;20401;-73
2022/01/27 04:10:14;;;;;;;14.05;5.57;;;;;;;4.31;86.87;102268.81;5023973;28;20073;-73
2022/01/27 04:12:40;;;;;;;22.73;6.60;;;;;;;4.36;87.24;102272.97;5026458;28;20057;-72
2022/01/27 04:15:08;;;;;;;12.48;5.53;;;;;;;4.36;86.91;102265.16;5028240;28;20041;-73
2022/01/27 04:17:35;;;;;;;8.40;4.25;;;;;;;4.38;86.97;102262.53;5027899;28;20040;-71
2022/01/27 04:20:01;;;;;;;10.25;5.72;;;;;;;4.36;87.30;102253.91;5026406;28;20037;-72
2022/01/27 04:22:29;;;;;;;11.48;4.82;;;;;;;4.38;87.38;102249.53;5024782;28;20163;-71
2022/01/27 04:24:56;;;;;;;13.90;5.25;;;;;;;4.40;87.28;102237.28;5025202;28;20126;-71
2022/01/27 04:27:29;;;;;;;14.48;6.70;;;;;;;4.39;87.55;102235.63;5025924;28;20053;-72
2022/01/27 04:29:56;;;;;;;9.77;5.45;;;;;;;4.37;87.53;102220.03;5024679;28;20059;-71
2022/01/27 04:32:29;;;;;;;8.45;4.30;;;;;;;4.41;87.30;102221.66;5025727;28;20129;-72
2022/01/27 04:35:01;;;;;;;7.30;4.00;;;;;;;4.38;88.16;102197.50;5027377;28;20126;-72
2022/01/27 04:37:32;;;;;;;10.10;6.82;;;;;;;4.30;87.95;102199.47;5027622;28;20148;-72
2022/01/27 04:40:06;;;;;;;4.72;2.97;;;;;;;4.30;87.82;102202.06;5045187;28;20038;-73
2022/01/27 04:42:44;;;;;;;8.30;4.78;;;;;;;4.30;88.27;102209.88;5030068;28;20098;-72
2022/01/27 04:45:13;;;;;;;19.60;7.28;;;;;;;4.36;88.02;102204.47;5034670;28;20045;-72
2022/01/27 04:47:45;;;;;;;9.95;5.47;;;;;;;4.38;88.24;102200.09;5030805;28;20126;-72
2022/01/27 04:50:12;;;;;;;;;;;;;;;4.42;87.96;102193.88;5024319;28;20125;-73
2022/01/27 04:52:44;;;;;;;7.57;4.45;;;;;;;4.44;88.06;102198.13;5024762;28;20022;-72
2022/01/27 04:55:14;;;;;;;5.53;3.97;;;;;;;4.44;87.71;102197.28;5025665;28;20045;-71
2022/01/27 04:57:43;;;;;;;10.60;3.22;;;;;;;4.43;88.41;102182.59;5025764;28;20045;-73
2022/01/27 05:00:13;;;;;;;10.20;5.00;;;;;;;4.48;88.15;102178.94;5026746;28;20056;-72
2022/01/27 05:02:44;;;;;;;7.93;4.32;;;;;;;4.46;87.93;102177.28;5026777;28;20503;-73
2022/01/27 05:05:12;;;;;;;8.20;4.93;;;;;;;4.46;88.15;102169.50;5028650;28;20059;-72
2022/01/27 05:07:40;;;;;;;6.50;4.10;;;;;;;4.42;88.22;102170.47;5027668;28;20099;-73
2022/01/27 05:10:12;;;;;;;9.50;4.00;;;;;;;4.46;88.82;102159.91;5032311;28;20056;-72
2022/01/27 05:12:43;;;;;;;12.23;4.97;;;;;;;4.53;88.49;102176.19;5027278;28;20044;-73
2022/01/27 05:15:11;;;;;;;7.38;4.38;;;;;;;4.57;87.81;102172.59;5032076;28;20068;-72
2022/01/27 05:17:37;;;;;;;8.38;4.82;;;;;;;4.57;88.17;102157.84;5031755;28;20395;-72
2022/01/27 05:20:05;;;;;;;13.05;7.03;;;;;;;4.59;88.24;102157.78;5031807;28;20938;-72
2022/01/27 05:22:32;;;;;;;9.48;4.75;;;;;;;4.54;88.22;102146.69;5030197;28;20049;-72
2022/01/27 05:25:00;;;;;;;8.30;5.25;;;;;;;4.51;88.13;102151.97;5025798;28;20071;-71
2022/01/27 05:27:27;;;;;;;12.45;5.80;;;;;;;4.39;88.49;102144.56;5030403;28;20044;-73
2022/01/27 05:29:54;;;;;;;15.95;4.50;;;;;;;4.35;89.14;102149.00;5028545;28;20071;-72
2022/01/27 05:32:21;;;;;;;12.00;4.25;;;;;;;4.27;89.55;102142.34;5030146;28;20041;-71
2022/01/27 05:34:48;;;;;;;8.80;3.95;;;;;;;4.23;89.45;102149.38;5029432;28;20041;-69
2022/01/27 05:37:15;;;;;;;7.05;4.15;;;;;;;4.15;90.29;102137.50;5025868;28;20069;-70
2022/01/27 05:39:43;;;;;;;10.52;4.95;;;;;;;4.14;90.41;102121.06;5033943;28;20124;-73
2022/01/27 05:42:11;;;;;;;11.38;5.15;;;;;;;4.14;90.37;102136.66;5026623;28;20050;-71
2022/01/27 05:44:37;;;;;;;10.63;4.10;;;;;;;4.16;90.85;102131.41;5038862;28;20040;-71
2022/01/27 05:47:04;;;;;;;5.70;3.25;;;;;;;4.26;90.02;102132.84;5037605;28;20040;-71
2022/01/27 05:49:31;;;;;;;11.32;5.50;;;;;;;4.33;90.09;102127.41;5031808;28;20058;-72
2022/01/27 05:51:58;;;;;;;9.20;3.95;;;;;;;4.42;89.58;102129.72;5031660;28;20063;-70
2022/01/27 05:54:24;;;;;;;13.15;6.10;;;;;;;4.53;89.21;102124.16;5030956;28;20059;-71
2022/01/27 05:56:51;;;;;;;8.00;3.67;;;;;;;4.63;88.50;102125.56;5028848;28;20045;-71
2022/01/27 05:59:20;;;;;;;10.95;5.75;;;;;;;4.60;89.06;102123.06;5030879;28;20103;-72
2022/01/27 06:01:46;;;;;;;7.97;4.38;;;;;;;4.67;88.53;102114.13;5028014;28;20072;-72
2022/01/27 06:04:13;;;;;;;16.63;7.50;;;;;;;4.67;89.13;102111.53;5030878;28;20124;-70
2022/01/27 06:06:40;;;;;;;11.00;6.05;;;;;;;4.68;89.28;102108.03;5028985;28;20053;-74
2022/01/27 06:09:06;;;;;;;9.70;4.72;;;;;;;4.57;89.00;102100.59;5032556;28;20044;-70
2022/01/27 06:11:33;;;;;;;10.52;5.15;;;;;;;4.50;89.85;102095.63;5030686;28;20828;-71
2022/01/27 06:13:59;;;;;;;8.48;5.00;;;;;;;4.49;89.67;102086.13;5039783;28;20048;-69
2022/01/27 06:16:28;;;;;;;19.00;4.28;;;;;;;4.46;90.08;102081.88;5020575;28;20234;-70
2022/01/27 06:18:54;;;;;;;10.07;4.93;;;;;;;4.48;89.82;102084.41;5023337;28;20060;-69
2022/01/27 06:21:21;;;;;;;8.02;3.83;;;;;;;4.62;89.44;102092.63;5025038;28;20117;-69
2022/01/27 06:23:48;;;;;;;9.30;4.57;;;;;;;4.74;89.45;102096.50;5024337;28;20056;-72
2022/01/27 06:26:15;;;;;;;8.07;4.22;;;;;;;4.70;89.44;102088.84;5021530;28;20044;-71
2022/01/27 06:28:42;;;;;;;16.15;7.93;;;;;;;4.76;89.13;102092.09;5033414;28;20044;-71
2022/01/27 06:31:08;;;;;;;15.55;4.95;;;;;;;4.80;88.77;102088.47;5036303;28;20044;-72
2022/01/27 06:33:36;;;;;;;10.50;5.40;;;;;;;4.82;89.36;102081.47;5031802;28;20041;-72
2022/01/27 06:36:03;;;;;;;8.93;3.47;;;;;;;4.83;88.88;102084.94;5036450;28;20048;-72
2022/01/27 06:38:30;;;;;;;18.20;6.28;;;;;;;4.86;88.89;102088.28;5033622;28;20534;-72
2022/01/27 06:40:56;;;;;;;12.25;4.88;;;;;;;4.92;88.84;102087.25;5032511;28;20111;-73
2022/01/27 06:43:23;;;;;;;11.35;4.25;;;;;;;4.92;89.05;102077.66;5037446;28;20074;-72
2022/01/27 06:45:50;;;;;;;12.50;6.45;;;;;;;4.88;89.22;102072.63;5035844;28;20056;-73
2022/01/27 06:48:17;;;;;;;14.30;5.88;;;;;;;4.94;88.58;102070.66;5036567;28;20048;-72
2022/01/27 06:50:50;;;;;;;11.40;5.85;;;;;;;4.96;88.81;102078.41;5036711;28;20058;-72
2022/01/27 06:53:17;;;;;;;17.92;6.03;;;;;;;4.98;88.94;102074.00;5033443;28;20108;-73
2022/01/27 06:55:44;;;;;;;8.27;4.38;;;;;;;4.98;89.06;102061.81;5033191;28;20726;-72
2022/01/27 06:58:11;;;;;;;11.77;5.05;;;;;;;4.98;89.57;102064.41;5036753;28;20049;-72
2022/01/27 07:00:38;;;;;;;8.38;4.53;;;;;;;5.02;90.05;102071.22;5034102;28;20095;-74
2022/01/27 07:03:06;;;;;;;16.00;3.88;;;;;;;5.00;91.03;102067.81;5033927;28;20044;-72
2022/01/27 07:05:33;;;;;;;6.38;3.72;;;;;;;4.99;91.51;102073.09;5033514;28;20269;-73
2022/01/27 07:08:02;;;;;;;7.78;3.95;;;;;;;4.93;91.83;102057.66;5031093;28;20041;-74
2022/01/27 07:10:29;;;;;;;2.53;2.20;;;;;;;4.89;92.87;102046.50;5036473;28;20048;-75
2022/01/27 07:12:55;;;;;;;16.75;5.68;;;;;;;4.84;93.57;102047.59;5046970;28;20110;-73
2022/01/27 07:15:22;;;;;;;33.60;6.78;;;;;;;4.82;93.92;102039.81;5034888;28;20041;-74
2022/01/27 07:17:49;;;;;;;11.25;5.15;;;;;;;4.81;94.44;102038.13;5037116;28;20159;-73
2022/01/27 07:20:17;;;;;;;5.95;4.10;;;;;;;4.78;95.51;102053.88;5035206;28;20409;-68
2022/01/27 07:22:44;;;;;;;7.15;3.22;;;;;;;4.80;95.70;102046.00;5034584;28;20036;-71
2022/01/27 07:25:12;;;;;;;7.22;3.38;;;;;;;4.76;96.24;102037.44;5035988;28;20163;-72
2022/01/27 07:27:39;;;;;;;15.68;8.52;;;;;;;4.76;96.30;102041.78;5027120;28;20041;-71
2022/01/27 07:30:07;;;;;;;9.30;4.70;;;;;;;4.75;96.61;102042.72;5031436;28;20047;-71
2022/01/27 07:32:33;;;;;;;8.18;4.20;;;;;;;4.76;96.01;102039.19;5041991;28;20049;-71
2022/01/27 07:35:01;;;;;;;8.50;5.30;;;;;;;4.82;96.08;102044.19;5036921;28;20136;-72
2022/01/27 07:37:27;;;;;;;11.75;6.68;;;;;;;4.85;95.79;102038.88;5037544;28;20049;-72
2022/01/27 07:39:54;;;;;;;9.70;4.53;;;;;;;4.88;95.79;102043.97;5037316;28;20157;-71
2022/01/27 07:42:22;;;;;;;15.30;5.15;;;;;;;4.89;95.83;102045.69;5035977;28;20045;-72
2022/01/27 07:44:49;;;;;;;7.72;4.90;;;;;;;4.91;95.64;102046.47;5035000;28;20068;-72
2022/01/27 07:47:15;;;;;;;7.18;5.15;;;;;;;4.92;95.48;102061.19;5042578;28;20087;-72
2022/01/27 07:49:42;;;;;;;13.65;5.97;;;;;;;4.96;95.75;102058.44;5034899;28;20037;-72
2022/01/27 07:52:09;;;;;;;5.95;3.58;;;;;;;4.92;96.05;102054.22;5043078;28;20045;-71
2022/01/27 07:54:35;;;;;;;8.68;4.68;;;;;;;4.99;95.96;102053.09;5036117;28;20037;-73
2022/01/27 07:57:03;;;;;;;6.68;4.40;;;;;;;4.99;96.00;102055.69;5038936;28;20049;-72
2022/01/27 07:59:32;;;;;;;17.30;5.45;;;;;;;5.00;95.85;102056.56;5038901;28;20048;-72
2022/01/27 08:01:58;;;;;;;15.73;5.85;;;;;;;5.02;95.76;102060.81;5041935;28;20091;-74
2022/01/27 08:04:26;;;;;;;10.60;5.85;;;;;;;5.03;95.53;102054.72;5033129;28;20064;-73
2022/01/27 08:06:52;;;;;;;18.35;8.60;;;;;;;5.04;95.86;102055.53;5035305;28;20053;-72
2022/01/27 08:09:19;;;;;;;13.73;7.13;;;;;;;5.09;95.27;102054.47;5038237;28;20124;-72
2022/01/27 08:11:46;;;;;;;13.98;6.63;;;;;;;5.12;95.30;102054.38;5041752;28;20167;-73
2022/01/27 08:14:13;;;;;;;9.57;5.93;;;;;;;5.16;95.41;102058.56;5042807;28;20041;-71
2022/01/27 08:16:41;;;;;;;10.77;5.22;;;;;;;5.23;94.66;102059.19;5040113;28;20060;-72
2022/01/27 08:19:08;;;;;;;11.55;6.72;;;;;;;5.24;94.92;102056.53;5049033;28;20049;-71
2022/01/27 08:21:35;;;;;;;10.65;6.55;;;;;;;5.27;94.36;102053.81;5054224;28;20068;-72
2022/01/27 08:24:01;;;;;;;10.63;5.68;;;;;;;5.32;93.89;102051.03;5063827;28;20074;-72
2022/01/27 08:26:35;;;;;;;15.45;6.38;;;;;;;5.39;93.57;102055.94;5051690;28;20155;-72
2022/01/27 08:29:11;;;;;;;11.52;6.10;;;;;;;5.42;93.49;102062.84;5040347;28;20080;-72
2022/01/27 08:31:54;;;;;;;5.50;3.20;;;;;;;5.50;93.55;102059.03;5035665;28;20049;-72
2022/01/27 08:34:29;;;;;;;10.88;5.75;;;;;;;5.55;93.48;102057.06;5036792;28;20041;-73
2022/01/27 08:36:56;;;;;;;13.38;6.38;;;;;;;5.55;93.77;102057.06;5037343;28;20089;-73
2022/01/27 08:39:25;;;;;;;6.40;3.95;;;;;;;5.56;94.21;102050.97;5033666;28;20061;-72
2022/01/27 08:41:52;;;;;;;16.30;6.95;;;;;;;5.58;95.20;102054.38;5035244;28;20036;-71
2022/01/27 08:44:19;;;;;;;14.40;5.78;;;;;;;5.57;95.04;102052.66;5037921;28;20130;-71
2022/01/27 08:46:46;;;;;;;6.40;4.50;;;;;;;5.49;96.00;102052.09;5030263;28;20079;-72
2022/01/27 08:49:13;;;;;;;8.15;4.85;;;;;;;5.41;96.76;102053.31;5038365;28;20059;-71
2022/01/27 08:51:42;;;;;;;20.73;8.07;;;;;;;5.34;97.21;102052.69;5028192;28;20049;-71
2022/01/27 08:54:08;;;;;;;12.70;6.40;;;;;;;5.34;97.51;102057.03;5036758;28;20115;-71
2022/01/27 08:56:35;;;;;;;13.80;7.88;;;;;;;5.34;97.55;102055.28;5036963;28;20071;-70
2022/01/27 08:59:02;;;;;;;11.50;5.10;;;;;;;5.34;98.12;102054.41;5039182;28;20554;-71
2022/01/27 09:01:28;;;;;;;26.40;8.70;;;;;;;5.36;98.14;102050.00;5042272;28;20068;-71
2022/01/27 09:03:55;;;;;;;10.00;6.22;;;;;;;5.36;98.51;102048.28;5041573;28;20036;-70
2022/01/27 09:06:22;;;;;;;12.77;6.80;;;;;;;5.38;98.69;102040.38;5045715;28;20056;-70
2022/01/27 09:08:52;;;;;;;10.60;6.03;;;;;;;5.40;98.31;102044.63;5049899;28;20120;-71
2022/01/27 09:11:19;;;;;;;20.15;6.85;;;;;;;5.40;98.99;102047.22;5047072;28;20049;-70
2022/01/27 09:13:46;;;;;;;6.97;4.93;;;;;;;5.45;99.20;102050.53;5034678;28;20067;-71
2022/01/27 09:16:13;;;;;;;14.82;6.55;;;;;;;5.46;98.95;102044.38;5037798;28;20045;-71
2022/01/27 09:18:40;;;;;;;15.27;5.72;;;;;;;5.46;99.21;102049.59;5029069;28;20059;-71
2022/01/27 09:21:11;;;;;;;11.40;5.57;;;;;;;5.50;99.04;102042.56;5040083;28;20072;-71
2022/01/27 09:23:38;;;;;;;14.27;8.13;;;;;;;5.53;98.65;102047.63;5035400;28;20049;-70
2022/01/27 09:26:10;;;;;;;12.48;7.15;;;;;;;5.54;99.18;102038.00;5034071;28;20057;-70
2022/01/27 09:28:37;;;;;;;14.20;7.45;;;;;;;5.55;99.42;102038.84;5033843;28;20037;-72
2022/01/27 09:31:04;;;;;;;14.40;6.38;;;;;;;5.54;99.35;102038.00;5038084;28;20065;-71
2022/01/27 09:33:30;;;;;;;15.50;6.30;;;;;;;5.56;98.60;102044.00;5036231;28;20045;-73
2022/01/27 09:35:57;;;;;;;11.98;5.13;;;;;;;5.57;99.27;102045.72;5036800;28;20095;-72
2022/01/27 09:38:23;;;;;;;16.52;6.88;;;;;;;5.59;98.66;102051.69;5027700;28;20526;-73
2022/01/27 09:40:51;;;;;;;14.75;6.57;;;;;;;5.66;99.10;102047.09;5033531;28;20053;-74
2022/01/27 09:43:19;;;;;;;15.77;7.30;;;;;;;5.70;98.90;102048.69;5030762;28;20420;-74
2022/01/27 09:45:46;;;;;;;18.25;8.27;;;;;;;5.76;98.64;102051.06;5028464;28;20045;-72
2022/01/27 09:48:15;;;;;;;11.15;6.93;;;;;;;5.81;98.96;102054.38;5036127;28;20033;-71
2022/01/27 09:50:59;;;;;;;12.98;5.22;;;;;;;5.84;99.08;102056.84;5038025;28;20056;-72
2022/01/27 09:53:26;;;;;;;13.98;5.13;;;;;;;5.84;99.44;102049.03;5037467;28;20052;-71
2022/01/27 09:55:53;;;;;;;10.05;3.97;;;;;;;5.83;99.12;102044.72;5030831;28;20072;-72
2022/01/27 09:58:21;;;;;;;9.75;4.00;;;;;;;5.85;99.21;102040.31;5039210;28;20040;-73
2022/01/27 10:00:47;;;;;;;11.07;5.40;;;;;;;5.91;99.53;102045.28;5037339;28;20050;-74
2022/01/27 10:03:16;;;;;;;8.80;4.07;;;;;;;5.99;99.74;102044.06;5035287;28;20103;-73
2022/01/27 10:05:46;;;;;;;11.00;4.75;;;;;;;6.05;99.57;102045.56;5030383;28;20045;-70
2022/01/27 10:08:15;;;;;;;11.85;4.78;;;;;;;6.09;99.63;102047.16;5034315;28;20048;-73
2022/01/27 10:10:43;;;;;;;12.95;6.03;;;;;;;6.08;99.72;102048.91;5037821;28;20045;-72
2022/01/27 10:13:11;;;;;;;12.70;4.75;;;;;;;6.15;99.50;102053.00;5037650;28;20138;-73
2022/01/27 10:15:41;;;;;;;13.95;5.43;;;;;;;6.13;99.26;102053.94;5038281;28;20049;-73
2022/01/27 10:18:12;;;;;;;17.52;6.57;;;;;;;6.18;99.43;102057.22;5035513;28;20045;-74
2022/01/27 10:20:41;;;;;;;15.77;5.93;;;;;;;6.19;99.63;102053.72;5036196;28;20106;-73
2022/01/27 10:23:10;;;;;;;13.05;4.55;;;;;;;6.22;100.00;102050.97;5036206;28;20040;-72
2022/01/27 10:25:45;;;;;;;11.25;5.68;;;;;;;6.26;100.00;102050.78;5037491;28;20037;-73
2022/01/27 10:28:29;;;;;;;9.68;5.55;;;;;;;6.25;99.88;102048.25;5038699;28;20060;-73
2022/01/27 10:31:05;;;;;;;5.18;3.35;;;;;;;6.32;100.00;102053.13;5032267;28;20048;-74
2022/01/27 10:33:54;;;;;;;7.07;4.32;;;;;;;6.36;99.54;102040.81;5034651;28;20063;-73
2022/01/27 10:36:23;;;;;;;7.60;4.22;;;;;;;6.46;99.64;102043.81;5028005;28;20267;-71
2022/01/27 10:38:55;;;;;;;12.32;6.18;;;;;;;6.47;99.83;102039.47;5034185;28;20079;-71
2022/01/27 10:41:22;;;;;;;8.73;4.75;;;;;;;6.52;99.51;102038.38;5034706;28;20319;-72
2022/01/27 10:43:49;;;;;;;12.48;5.43;;;;;;;6.54;99.51;102031.28;5039136;28;20041;-71
2022/01/27 10:46:24;;;;;;;10.30;4.15;;;;;;;6.62;99.50;102039.66;5036078;28;20048;-72
2022/01/27 10:48:57;;;;;;;6.72;4.40;;;;;;;6.68;99.31;102034.19;5033837;28;20052;-72
2022/01/27 10:51:28;;;;;;;7.97;3.78;;;;;;;6.70;99.23;102047.16;5040341;28;20037;-72
2022/01/27 10:54:01;;;;;;;8.15;5.55;;;;;;;6.70;99.53;102032.34;5036768;28;20045;-72
2022/01/27 10:56:30;;;;;;;7.20;4.28;;;;;;;6.74;99.62;102028.69;5043240;28;20045;-72
2022/01/27 10:58:59;;;;;;;3.75;3.15;;;;;;;6.79;99.66;102020.66;5054455;28;20041;-71
2022/01/27 11:01:29;;;;;;;3.80;3.10;;;;;;;6.80;99.22;102030.19;5061805;28;20120;-72
2022/01/27 11:03:58;;;;;;;12.27;4.07;;;;;;;6.79;99.15;102033.72;5052637;28;20080;-72
2022/01/27 11:06:26;;;;;;;9.02;4.30;;;;;;;6.74;99.26;102031.31;5053087;28;20040;-72
2022/01/27 11:08:56;;;;;;;7.72;3.63;;;;;;;6.72;98.82;102020.06;5040537;28;20068;-72
2022/01/27 11:11:24;;;;;;;6.70;4.63;;;;;;;6.78;98.63;102022.41;5033615;28;20048;-73
2022/01/27 11:13:52;;;;;;;4.43;3.47;;;;;;;6.78;98.63;102019.81;5037359;28;20076;-71
2022/01/27 11:16:22;;;;;;;6.35;2.95;;;;;;;6.79;98.86;102020.66;5034685;28;20779;-72
2022/01/27 11:18:51;;;;;;;5.45;3.30;;;;;;;6.80;99.07;102012.75;5036498;28;20062;-73
2022/01/27 11:21:30;;;;;;;3.78;2.25;;;;;;;6.82;99.06;102015.28;5036364;28;20041;-72
2022/01/27 11:24:14;;;;;;;6.95;4.35;;;;;;;6.80;99.52;102012.75;5036966;28;20055;-72
2022/01/27 11:26:43;;;;;;;8.55;3.75;;;;;;;6.80;99.26;102002.31;5035428;28;20068;-71
2022/01/27 11:29:10;;;;;;;4.43;2.85;;;;;;;6.84;99.37;102010.84;5040974;28;20052;-71
2022/01/27 11:31:59;;;;;;;6.97;3.67;;;;;;;6.85;99.24;101997.75;5039168;28;20037;-72
2022/01/27 11:34:47;;;;;;;8.43;3.80;;;;;;;6.87;99.22;102003.72;5035451;28;20045;-72
2022/01/27 11:37:18;;;;;;;7.75;5.35;;;;;;;6.92;99.19;101991.34;5033512;28;20044;-70
2022/01/27 11:39:54;;;;;;;6.20;2.47;;;;;;;6.97;99.12;101989.34;5021462;28;20400;-71
2022/01/27 11:42:22;;;;;;;9.85;5.10;;;;;;;6.98;99.46;101991.06;5035862;28;20368;-68
2022/01/27 11:44:48;;;;;;;7.25;4.28;;;;;;;7.04;98.77;101975.09;5030857;28;20038;-69
2022/01/27 11:47:20;;;;;;;4.63;1.63;;;;;;;7.08;98.99;101981.91;5031868;28;20041;-72
2022/01/27 11:49:54;;;;;;;7.18;4.28;;;;;;;7.09;98.38;101977.50;5037878;28;20036;-72
2022/01/27 11:52:24;;;;;;;4.80;3.08;;;;;;;7.12;98.56;101978.22;5035836;28;20077;-73
2022/01/27 11:54:51;;;;;;;3.72;2.45;;;;;;;7.17;98.69;101979.69;5040848;28;20119;-73
2022/01/27 11:57:41;;;;;;;5.50;3.22;;;;;;;7.17;98.02;101965.81;5036989;28;20412;-73
2022/01/27 12:00:10;;;;;;;7.07;4.15;;;;;;;7.22;98.20;101971.66;5039086;28;20041;-71